Archival Weather

Granbury Rgnl

Granbury, Texas (KGDJ)

Report from: Monday, January 29, 2024 8:15 AM UTC
Current time: Tuesday, June 18, 2024 11:34 AM UTC

Current weather – Weather history – Daily summaries
Weather forecast

Temperature3.4°C (38.1°F)
Dew point1.6°C (34.9°F)
Winds Calm
Visibility10 mi. (16.1 km)
Clouds Sky clear
Altimeter30.34 in.Hg (1027 mB)
Relative humidity88 %
Density altitude-1,786 ft. (-544 m)
Remarks Fully automated report
Automated weather observing station with precipitation discriminator
Flight conditions Visual Meteorological Conditions
Raw dataKGDJ 290815Z AUTO 00000KT 10SM CLR 03/02 A3034 RMK AO2 T00340016
An error has occurred. This application may no longer respond until reloaded. Reload 🗙